Terminal Aerodrome Forecast
Issued by NWS

Home | Current Version | Previous Version | Text Only | Print | Product List | Glossary On
Versions: 1 2 3 4 5 6 7 8 9 10 11 12 13 14 15 16 17 18 19
000
FTUS43 KLSX 231130
TAFSUS
TAF
KSUS 231130Z 2312/2412 03009KT P6SM -SHRA OVC045
     FM231700 04009KT P6SM OVC025
     FM240300 02006KT P6SM OVC015=

USA.gov is the U.S. government's official web portal to all federal, state and local government web resources and services.